sensor_id;sensor_type;location;lat;lon;timestamp;P1;durP1;ratioP1;P2;durP2;ratioP2
73885;SDS011;62217;44.504;11.312;2024-03-08T00:02:11;5.72;;;1.90;;
73885;SDS011;62217;44.504;11.312;2024-03-08T00:04:38;6.43;;;2.05;;
73885;SDS011;62217;44.504;11.312;2024-03-08T00:07:03;6.68;;;1.95;;
73885;SDS011;62217;44.504;11.312;2024-03-08T00:09:29;4.85;;;1.80;;
73885;SDS011;62217;44.504;11.312;2024-03-08T00:11:55;6.90;;;1.63;;
73885;SDS011;62217;44.504;11.312;2024-03-08T00:14:21;5.40;;;2.70;;
73885;SDS011;62217;44.504;11.312;2024-03-08T00:16:46;5.13;;;1.80;;
73885;SDS011;62217;44.504;11.312;2024-03-08T00:19:12;5.47;;;1.60;;
73885;SDS011;62217;44.504;11.312;2024-03-08T00:21:37;5.68;;;2.33;;
73885;SDS011;62217;44.504;11.312;2024-03-08T00:24:03;6.47;;;1.90;;
73885;SDS011;62217;44.504;11.312;2024-03-08T00:26:28;4.28;;;1.60;;
73885;SDS011;62217;44.504;11.312;2024-03-08T00:28:54;5.00;;;1.60;;
73885;SDS011;62217;44.504;11.312;2024-03-08T00:31:21;6.78;;;1.95;;
73885;SDS011;62217;44.504;11.312;2024-03-08T00:33:46;5.53;;;1.55;;
73885;SDS011;62217;44.504;11.312;2024-03-08T00:36:12;4.93;;;1.73;;
73885;SDS011;62217;44.504;11.312;2024-03-08T00:38:37;6.03;;;1.65;;
73885;SDS011;62217;44.504;11.312;2024-03-08T00:41:03;5.78;;;1.73;;
73885;SDS011;62217;44.504;11.312;2024-03-08T00:43:28;5.15;;;1.67;;
73885;SDS011;62217;44.504;11.312;2024-03-08T00:45:55;4.60;;;1.80;;
73885;SDS011;62217;44.504;11.312;2024-03-08T00:48:21;4.43;;;2.22;;
73885;SDS011;62217;44.504;11.312;2024-03-08T00:50:46;6.43;;;1.80;;
73885;SDS011;62217;44.504;11.312;2024-03-08T00:53:12;4.63;;;1.52;;
73885;SDS011;62217;44.504;11.312;2024-03-08T00:55:37;4.40;;;1.60;;
73885;SDS011;62217;44.504;11.312;2024-03-08T00:58:03;5.20;;;1.80;;
73885;SDS011;62217;44.504;11.312;2024-03-08T01:00:29;5.45;;;1.77;;
73885;SDS011;62217;44.504;11.312;2024-03-08T01:02:55;6.20;;;1.98;;
73885;SDS011;62217;44.504;11.312;2024-03-08T01:05:20;5.13;;;1.92;;
73885;SDS011;62217;44.504;11.312;2024-03-08T01:07:46;4.47;;;1.42;;
73885;SDS011;62217;44.504;11.312;2024-03-08T01:10:11;4.82;;;1.60;;
73885;SDS011;62217;44.504;11.312;2024-03-08T01:12:37;6.07;;;1.65;;
73885;SDS011;62217;44.504;11.312;2024-03-08T01:15:04;5.10;;;1.27;;
73885;SDS011;62217;44.504;11.312;2024-03-08T01:17:30;5.07;;;2.25;;
73885;SDS011;62217;44.504;11.312;2024-03-08T01:19:56;4.32;;;1.45;;
73885;SDS011;62217;44.504;11.312;2024-03-08T01:22:21;5.18;;;1.85;;
73885;SDS011;62217;44.504;11.312;2024-03-08T01:24:47;5.85;;;1.98;;
73885;SDS011;62217;44.504;11.312;2024-03-08T01:27:13;5.53;;;2.03;;
73885;SDS011;62217;44.504;11.312;2024-03-08T01:29:38;4.72;;;1.25;;
73885;SDS011;62217;44.504;11.312;2024-03-08T01:32:04;4.20;;;1.50;;
73885;SDS011;62217;44.504;11.312;2024-03-08T01:34:29;4.20;;;1.40;;
73885;SDS011;62217;44.504;11.312;2024-03-08T01:36:55;4.15;;;1.20;;
73885;SDS011;62217;44.504;11.312;2024-03-08T01:39:23;4.05;;;1.42;;
73885;SDS011;62217;44.504;11.312;2024-03-08T01:41:49;4.60;;;1.65;;
73885;SDS011;62217;44.504;11.312;2024-03-08T01:44:14;4.28;;;1.52;;
73885;SDS011;62217;44.504;11.312;2024-03-08T01:46:42;5.45;;;1.60;;
73885;SDS011;62217;44.504;11.312;2024-03-08T01:49:12;8.20;;;1.98;;
73885;SDS011;62217;44.504;11.312;2024-03-08T01:51:38;5.20;;;1.42;;
73885;SDS011;62217;44.504;11.312;2024-03-08T01:54:05;6.43;;;2.08;;
73885;SDS011;62217;44.504;11.312;2024-03-08T01:56:31;3.80;;;1.63;;
73885;SDS011;62217;44.504;11.312;2024-03-08T01:58:57;4.38;;;1.60;;
73885;SDS011;62217;44.504;11.312;2024-03-08T02:01:24;5.00;;;1.67;;
73885;SDS011;62217;44.504;11.312;2024-03-08T02:03:50;7.32;;;2.03;;
73885;SDS011;62217;44.504;11.312;2024-03-08T02:06:15;5.63;;;2.75;;
73885;SDS011;62217;44.504;11.312;2024-03-08T02:08:42;5.00;;;2.03;;
73885;SDS011;62217;44.504;11.312;2024-03-08T02:11:11;5.60;;;1.95;;
73885;SDS011;62217;44.504;11.312;2024-03-08T02:13:37;6.82;;;2.25;;
73885;SDS011;62217;44.504;11.312;2024-03-08T02:16:03;5.38;;;1.67;;
73885;SDS011;62217;44.504;11.312;2024-03-08T02:18:29;6.43;;;1.98;;
73885;SDS011;62217;44.504;11.312;2024-03-08T02:20:56;5.35;;;2.22;;
73885;SDS011;62217;44.504;11.312;2024-03-08T02:23:23;5.30;;;1.80;;
73885;SDS011;62217;44.504;11.312;2024-03-08T02:25:52;5.30;;;1.60;;
73885;SDS011;62217;44.504;11.312;2024-03-08T02:28:18;6.30;;;2.50;;
73885;SDS011;62217;44.504;11.312;2024-03-08T02:30:45;4.43;;;1.70;;
73885;SDS011;62217;44.504;11.312;2024-03-08T02:33:17;5.20;;;1.83;;
73885;SDS011;62217;44.504;11.312;2024-03-08T02:35:43;4.35;;;1.73;;
73885;SDS011;62217;44.504;11.312;2024-03-08T02:38:13;5.57;;;1.65;;
73885;SDS011;62217;44.504;11.312;2024-03-08T02:40:45;4.25;;;1.75;;
73885;SDS011;62217;44.504;11.312;2024-03-08T02:43:13;5.45;;;1.73;;
73885;SDS011;62217;44.504;11.312;2024-03-08T02:45:40;3.97;;;1.50;;
73885;SDS011;62217;44.504;11.312;2024-03-08T02:48:07;7.47;;;1.85;;
73885;SDS011;62217;44.504;11.312;2024-03-08T02:50:32;5.57;;;2.33;;
73885;SDS011;62217;44.504;11.312;2024-03-08T02:52:59;5.88;;;2.42;;
73885;SDS011;62217;44.504;11.312;2024-03-08T02:55:25;4.57;;;1.75;;
73885;SDS011;62217;44.504;11.312;2024-03-08T02:57:51;5.18;;;1.98;;
73885;SDS011;62217;44.504;11.312;2024-03-08T03:00:17;4.57;;;2.05;;
73885;SDS011;62217;44.504;11.312;2024-03-08T03:02:44;4.82;;;1.80;;
73885;SDS011;62217;44.504;11.312;2024-03-08T03:05:10;4.78;;;1.90;;
73885;SDS011;62217;44.504;11.312;2024-03-08T03:07:36;5.32;;;2.13;;
73885;SDS011;62217;44.504;11.312;2024-03-08T03:10:02;6.45;;;1.75;;
73885;SDS011;62217;44.504;11.312;2024-03-08T03:12:28;3.85;;;1.52;;
73885;SDS011;62217;44.504;11.312;2024-03-08T03:14:55;4.90;;;2.00;;
73885;SDS011;62217;44.504;11.312;2024-03-08T03:17:22;5.00;;;1.67;;
73885;SDS011;62217;44.504;11.312;2024-03-08T03:19:48;4.93;;;1.98;;
73885;SDS011;62217;44.504;11.312;2024-03-08T03:22:13;5.35;;;2.17;;
73885;SDS011;62217;44.504;11.312;2024-03-08T03:24:40;5.97;;;2.00;;
73885;SDS011;62217;44.504;11.312;2024-03-08T03:27:07;5.57;;;1.70;;
73885;SDS011;62217;44.504;11.312;2024-03-08T03:29:44;3.78;;;1.45;;
73885;SDS011;62217;44.504;11.312;2024-03-08T03:32:14;4.80;;;2.20;;
73885;SDS011;62217;44.504;11.312;2024-03-08T03:34:41;4.00;;;1.42;;
73885;SDS011;62217;44.504;11.312;2024-03-08T03:37:09;4.53;;;1.95;;
73885;SDS011;62217;44.504;11.312;2024-03-08T03:39:37;5.65;;;2.33;;
73885;SDS011;62217;44.504;11.312;2024-03-08T03:42:13;5.32;;;2.40;;
73885;SDS011;62217;44.504;11.312;2024-03-08T03:44:40;5.88;;;3.03;;
73885;SDS011;62217;44.504;11.312;2024-03-08T03:47:05;5.18;;;2.13;;
73885;SDS011;62217;44.504;11.312;2024-03-08T03:49:32;4.22;;;1.52;;
73885;SDS011;62217;44.504;11.312;2024-03-08T03:51:58;4.55;;;1.75;;
73885;SDS011;62217;44.504;11.312;2024-03-08T03:54:23;7.15;;;1.75;;
73885;SDS011;62217;44.504;11.312;2024-03-08T03:56:49;5.07;;;1.73;;
73885;SDS011;62217;44.504;11.312;2024-03-08T03:59:17;5.07;;;1.92;;
73885;SDS011;62217;44.504;11.312;2024-03-08T04:01:43;5.03;;;1.65;;
73885;SDS011;62217;44.504;11.312;2024-03-08T04:04:08;6.13;;;1.55;;
73885;SDS011;62217;44.504;11.312;2024-03-08T04:06:34;5.22;;;1.55;;
73885;SDS011;62217;44.504;11.312;2024-03-08T04:08:59;4.38;;;2.03;;
73885;SDS011;62217;44.504;11.312;2024-03-08T04:11:24;5.45;;;2.28;;
73885;SDS011;62217;44.504;11.312;2024-03-08T04:13:50;5.20;;;1.70;;
73885;SDS011;62217;44.504;11.312;2024-03-08T04:16:15;4.72;;;1.33;;
73885;SDS011;62217;44.504;11.312;2024-03-08T04:18:41;4.30;;;1.63;;
73885;SDS011;62217;44.504;11.312;2024-03-08T04:21:06;4.63;;;1.63;;
73885;SDS011;62217;44.504;11.312;2024-03-08T04:23:32;5.60;;;1.88;;
73885;SDS011;62217;44.504;11.312;2024-03-08T04:25:58;4.05;;;1.70;;
73885;SDS011;62217;44.504;11.312;2024-03-08T04:28:24;4.88;;;1.75;;
73885;SDS011;62217;44.504;11.312;2024-03-08T04:30:51;4.65;;;1.50;;
73885;SDS011;62217;44.504;11.312;2024-03-08T04:33:16;5.22;;;1.38;;
73885;SDS011;62217;44.504;11.312;2024-03-08T04:35:43;3.97;;;1.38;;
73885;SDS011;62217;44.504;11.312;2024-03-08T04:38:10;5.07;;;1.60;;
73885;SDS011;62217;44.504;11.312;2024-03-08T04:40:36;4.75;;;1.40;;
73885;SDS011;62217;44.504;11.312;2024-03-08T04:43:01;4.13;;;1.55;;
73885;SDS011;62217;44.504;11.312;2024-03-08T04:45:27;4.40;;;1.30;;
73885;SDS011;62217;44.504;11.312;2024-03-08T04:47:53;5.07;;;1.65;;
73885;SDS011;62217;44.504;11.312;2024-03-08T04:50:18;3.70;;;1.15;;
73885;SDS011;62217;44.504;11.312;2024-03-08T04:52:43;5.00;;;1.70;;
73885;SDS011;62217;44.504;11.312;2024-03-08T04:55:09;4.53;;;1.58;;
73885;SDS011;62217;44.504;11.312;2024-03-08T04:57:34;4.60;;;1.27;;
73885;SDS011;62217;44.504;11.312;2024-03-08T05:00:01;4.30;;;2.00;;
73885;SDS011;62217;44.504;11.312;2024-03-08T05:02:27;4.63;;;1.27;;
73885;SDS011;62217;44.504;11.312;2024-03-08T05:04:52;4.22;;;1.35;;
73885;SDS011;62217;44.504;11.312;2024-03-08T05:07:18;6.13;;;1.27;;
73885;SDS011;62217;44.504;11.312;2024-03-08T05:09:44;3.90;;;1.42;;
73885;SDS011;62217;44.504;11.312;2024-03-08T05:12:16;5.30;;;1.33;;
73885;SDS011;62217;44.504;11.312;2024-03-08T05:14:41;5.00;;;1.55;;
73885;SDS011;62217;44.504;11.312;2024-03-08T05:17:07;4.72;;;1.10;;
73885;SDS011;62217;44.504;11.312;2024-03-08T05:19:32;3.85;;;1.33;;
73885;SDS011;62217;44.504;11.312;2024-03-08T05:21:58;3.80;;;1.25;;
73885;SDS011;62217;44.504;11.312;2024-03-08T05:24:24;5.15;;;1.42;;
73885;SDS011;62217;44.504;11.312;2024-03-08T05:26:49;5.03;;;2.10;;
73885;SDS011;62217;44.504;11.312;2024-03-08T05:29:15;4.63;;;2.63;;
73885;SDS011;62217;44.504;11.312;2024-03-08T05:31:47;4.68;;;1.52;;
73885;SDS011;62217;44.504;11.312;2024-03-08T05:34:14;4.53;;;2.70;;
73885;SDS011;62217;44.504;11.312;2024-03-08T05:36:40;3.67;;;1.27;;
73885;SDS011;62217;44.504;11.312;2024-03-08T05:39:08;5.70;;;1.73;;
73885;SDS011;62217;44.504;11.312;2024-03-08T05:41:33;3.10;;;0.95;;
73885;SDS011;62217;44.504;11.312;2024-03-08T05:43:59;5.63;;;1.70;;
73885;SDS011;62217;44.504;11.312;2024-03-08T05:46:24;4.57;;;2.55;;
73885;SDS011;62217;44.504;11.312;2024-03-08T05:48:50;3.60;;;1.13;;
73885;SDS011;62217;44.504;11.312;2024-03-08T05:51:16;4.22;;;1.35;;
73885;SDS011;62217;44.504;11.312;2024-03-08T05:53:41;4.55;;;1.20;;
73885;SDS011;62217;44.504;11.312;2024-03-08T05:56:06;3.30;;;1.10;;
73885;SDS011;62217;44.504;11.312;2024-03-08T05:58:32;4.65;;;1.42;;
73885;SDS011;62217;44.504;11.312;2024-03-08T06:00:57;4.97;;;1.23;;
73885;SDS011;62217;44.504;11.312;2024-03-08T06:03:22;5.82;;;1.48;;
73885;SDS011;62217;44.504;11.312;2024-03-08T06:05:48;5.15;;;1.42;;
73885;SDS011;62217;44.504;11.312;2024-03-08T06:08:14;3.38;;;1.20;;
73885;SDS011;62217;44.504;11.312;2024-03-08T06:10:40;4.05;;;1.27;;
73885;SDS011;62217;44.504;11.312;2024-03-08T06:13:06;5.45;;;1.10;;
73885;SDS011;62217;44.504;11.312;2024-03-08T06:15:31;3.97;;;1.05;;
73885;SDS011;62217;44.504;11.312;2024-03-08T06:17:57;11.15;;;1.58;;
73885;SDS011;62217;44.504;11.312;2024-03-08T06:20:22;8.25;;;1.50;;
73885;SDS011;62217;44.504;11.312;2024-03-08T06:22:51;7.65;;;1.40;;
73885;SDS011;62217;44.504;11.312;2024-03-08T06:25:17;6.85;;;1.27;;
73885;SDS011;62217;44.504;11.312;2024-03-08T06:27:43;8.90;;;1.35;;
73885;SDS011;62217;44.504;11.312;2024-03-08T06:30:09;6.90;;;0.85;;
73885;SDS011;62217;44.504;11.312;2024-03-08T06:32:35;5.05;;;1.02;;
73885;SDS011;62217;44.504;11.312;2024-03-08T06:35:04;6.78;;;1.13;;
73885;SDS011;62217;44.504;11.312;2024-03-08T06:37:34;7.25;;;0.90;;
73885;SDS011;62217;44.504;11.312;2024-03-08T06:40:00;4.53;;;1.45;;
73885;SDS011;62217;44.504;11.312;2024-03-08T06:42:29;5.32;;;0.95;;
73885;SDS011;62217;44.504;11.312;2024-03-08T06:44:58;4.80;;;1.05;;
73885;SDS011;62217;44.504;11.312;2024-03-08T06:47:29;4.45;;;1.33;;
73885;SDS011;62217;44.504;11.312;2024-03-08T06:49:54;4.13;;;1.27;;
73885;SDS011;62217;44.504;11.312;2024-03-08T06:52:20;3.80;;;0.98;;
73885;SDS011;62217;44.504;11.312;2024-03-08T06:54:45;4.03;;;1.75;;
73885;SDS011;62217;44.504;11.312;2024-03-08T06:57:10;4.88;;;0.93;;
73885;SDS011;62217;44.504;11.312;2024-03-08T06:59:36;3.10;;;0.80;;
73885;SDS011;62217;44.504;11.312;2024-03-08T07:02:02;5.75;;;0.90;;
73885;SDS011;62217;44.504;11.312;2024-03-08T07:04:27;5.63;;;1.20;;
73885;SDS011;62217;44.504;11.312;2024-03-08T07:06:57;6.47;;;1.20;;
73885;SDS011;62217;44.504;11.312;2024-03-08T07:09:26;10.15;;;1.45;;
73885;SDS011;62217;44.504;11.312;2024-03-08T07:11:51;6.25;;;1.13;;
73885;SDS011;62217;44.504;11.312;2024-03-08T07:14:22;4.97;;;0.95;;
73885;SDS011;62217;44.504;11.312;2024-03-08T07:16:49;4.38;;;1.00;;
73885;SDS011;62217;44.504;11.312;2024-03-08T07:19:15;4.90;;;0.98;;
73885;SDS011;62217;44.504;11.312;2024-03-08T07:21:41;5.38;;;1.15;;
73885;SDS011;62217;44.504;11.312;2024-03-08T07:24:07;5.80;;;1.48;;
73885;SDS011;62217;44.504;11.312;2024-03-08T07:26:42;3.85;;;1.10;;
73885;SDS011;62217;44.504;11.312;2024-03-08T07:29:14;3.08;;;0.73;;
73885;SDS011;62217;44.504;11.312;2024-03-08T07:31:40;3.53;;;0.70;;
73885;SDS011;62217;44.504;11.312;2024-03-08T07:34:24;6.97;;;1.30;;
73885;SDS011;62217;44.504;11.312;2024-03-08T07:36:49;6.78;;;1.50;;
73885;SDS011;62217;44.504;11.312;2024-03-08T07:39:16;10.10;;;2.95;;
73885;SDS011;62217;44.504;11.312;2024-03-08T07:41:41;8.00;;;4.10;;
73885;SDS011;62217;44.504;11.312;2024-03-08T07:44:07;9.80;;;4.93;;
73885;SDS011;62217;44.504;11.312;2024-03-08T07:46:32;8.88;;;4.00;;
73885;SDS011;62217;44.504;11.312;2024-03-08T07:49:02;10.57;;;5.70;;
73885;SDS011;62217;44.504;11.312;2024-03-08T07:51:28;10.55;;;4.85;;
73885;SDS011;62217;44.504;11.312;2024-03-08T07:53:53;10.80;;;4.60;;
73885;SDS011;62217;44.504;11.312;2024-03-08T07:56:19;9.73;;;4.65;;
73885;SDS011;62217;44.504;11.312;2024-03-08T07:58:46;10.65;;;5.03;;
73885;SDS011;62217;44.504;11.312;2024-03-08T08:01:16;10.82;;;5.03;;
73885;SDS011;62217;44.504;11.312;2024-03-08T08:03:45;10.10;;;5.47;;
73885;SDS011;62217;44.504;11.312;2024-03-08T08:06:10;11.68;;;4.80;;
73885;SDS011;62217;44.504;11.312;2024-03-08T08:08:43;12.23;;;6.07;;
73885;SDS011;62217;44.504;11.312;2024-03-08T08:11:09;13.27;;;5.90;;
73885;SDS011;62217;44.504;11.312;2024-03-08T08:13:36;12.82;;;5.43;;
73885;SDS011;62217;44.504;11.312;2024-03-08T08:16:02;10.32;;;4.97;;
73885;SDS011;62217;44.504;11.312;2024-03-08T08:18:29;11.80;;;4.82;;
73885;SDS011;62217;44.504;11.312;2024-03-08T08:20:54;10.32;;;4.10;;
73885;SDS011;62217;44.504;11.312;2024-03-08T08:23:20;8.68;;;4.50;;
73885;SDS011;62217;44.504;11.312;2024-03-08T08:25:46;11.82;;;5.20;;
73885;SDS011;62217;44.504;11.312;2024-03-08T08:28:14;11.07;;;5.32;;
73885;SDS011;62217;44.504;11.312;2024-03-08T08:30:46;10.23;;;5.22;;
73885;SDS011;62217;44.504;11.312;2024-03-08T08:33:12;10.20;;;6.03;;
73885;SDS011;62217;44.504;11.312;2024-03-08T08:38:05;10.27;;;5.47;;
73885;SDS011;62217;44.504;11.312;2024-03-08T08:40:32;9.50;;;4.63;;
73885;SDS011;62217;44.504;11.312;2024-03-08T08:42:58;9.93;;;5.10;;
73885;SDS011;62217;44.504;11.312;2024-03-08T08:45:24;11.35;;;5.88;;
73885;SDS011;62217;44.504;11.312;2024-03-08T08:47:50;11.20;;;5.68;;
73885;SDS011;62217;44.504;11.312;2024-03-08T08:50:16;10.63;;;5.55;;
73885;SDS011;62217;44.504;11.312;2024-03-08T08:52:47;11.07;;;5.60;;
73885;SDS011;62217;44.504;11.312;2024-03-08T08:55:13;10.40;;;5.38;;
73885;SDS011;62217;44.504;11.312;2024-03-08T08:57:39;12.75;;;5.22;;
73885;SDS011;62217;44.504;11.312;2024-03-08T09:00:05;10.65;;;4.93;;
73885;SDS011;62217;44.504;11.312;2024-03-08T09:02:39;9.93;;;4.95;;
73885;SDS011;62217;44.504;11.312;2024-03-08T09:05:06;11.20;;;5.30;;
73885;SDS011;62217;44.504;11.312;2024-03-08T09:07:32;14.35;;;5.22;;
73885;SDS011;62217;44.504;11.312;2024-03-08T09:09:59;11.38;;;5.13;;
73885;SDS011;62217;44.504;11.312;2024-03-08T09:12:25;9.50;;;5.18;;
73885;SDS011;62217;44.504;11.312;2024-03-08T09:14:50;8.18;;;4.25;;
73885;SDS011;62217;44.504;11.312;2024-03-08T09:17:15;8.88;;;4.60;;
73885;SDS011;62217;44.504;11.312;2024-03-08T09:19:46;11.07;;;5.97;;
73885;SDS011;62217;44.504;11.312;2024-03-08T09:22:12;9.77;;;4.35;;
73885;SDS011;62217;44.504;11.312;2024-03-08T09:24:38;10.45;;;4.78;;
73885;SDS011;62217;44.504;11.312;2024-03-08T09:27:03;11.00;;;5.55;;
73885;SDS011;62217;44.504;11.312;2024-03-08T09:29:29;10.13;;;6.90;;
73885;SDS011;62217;44.504;11.312;2024-03-08T09:31:54;10.38;;;4.90;;
73885;SDS011;62217;44.504;11.312;2024-03-08T09:34:20;10.75;;;5.38;;
73885;SDS011;62217;44.504;11.312;2024-03-08T09:36:46;9.20;;;6.07;;
73885;SDS011;62217;44.504;11.312;2024-03-08T09:39:11;11.73;;;6.07;;
73885;SDS011;62217;44.504;11.312;2024-03-08T09:41:42;8.95;;;4.85;;
73885;SDS011;62217;44.504;11.312;2024-03-08T09:44:08;13.65;;;6.18;;
73885;SDS011;62217;44.504;11.312;2024-03-08T09:46:34;11.43;;;5.82;;
73885;SDS011;62217;44.504;11.312;2024-03-08T09:49:00;14.75;;;5.60;;
73885;SDS011;62217;44.504;11.312;2024-03-08T09:51:30;11.70;;;6.00;;
73885;SDS011;62217;44.504;11.312;2024-03-08T09:53:58;13.52;;;4.60;;
73885;SDS011;62217;44.504;11.312;2024-03-08T09:56:24;10.20;;;5.57;;
73885;SDS011;62217;44.504;11.312;2024-03-08T09:58:50;12.88;;;6.38;;
73885;SDS011;62217;44.504;11.312;2024-03-08T10:01:30;11.82;;;5.68;;
73885;SDS011;62217;44.504;11.312;2024-03-08T10:03:56;12.32;;;6.38;;
73885;SDS011;62217;44.504;11.312;2024-03-08T10:06:23;10.02;;;5.43;;
73885;SDS011;62217;44.504;11.312;2024-03-08T10:08:48;11.25;;;5.55;;
73885;SDS011;62217;44.504;11.312;2024-03-08T10:11:16;10.27;;;5.28;;
73885;SDS011;62217;44.504;11.312;2024-03-08T10:13:42;11.68;;;5.90;;
73885;SDS011;62217;44.504;11.312;2024-03-08T10:16:11;11.63;;;5.82;;
73885;SDS011;62217;44.504;11.312;2024-03-08T10:18:37;13.82;;;6.88;;
73885;SDS011;62217;44.504;11.312;2024-03-08T10:21:07;10.88;;;6.03;;
73885;SDS011;62217;44.504;11.312;2024-03-08T10:23:35;11.63;;;5.38;;
73885;SDS011;62217;44.504;11.312;2024-03-08T10:26:23;15.15;;;6.50;;
73885;SDS011;62217;44.504;11.312;2024-03-08T10:28:48;10.65;;;5.30;;
73885;SDS011;62217;44.504;11.312;2024-03-08T10:31:14;12.00;;;5.88;;
73885;SDS011;62217;44.504;11.312;2024-03-08T10:33:40;11.00;;;5.80;;
73885;SDS011;62217;44.504;11.312;2024-03-08T10:36:09;12.32;;;6.75;;
73885;SDS011;62217;44.504;11.312;2024-03-08T10:38:36;11.52;;;6.18;;
73885;SDS011;62217;44.504;11.312;2024-03-08T10:41:07;11.50;;;5.45;;
73885;SDS011;62217;44.504;11.312;2024-03-08T10:46:18;11.68;;;6.20;;
73885;SDS011;62217;44.504;11.312;2024-03-08T10:48:53;10.70;;;5.13;;
73885;SDS011;62217;44.504;11.312;2024-03-08T10:51:23;11.82;;;5.13;;
73885;SDS011;62217;44.504;11.312;2024-03-08T10:53:50;10.65;;;4.75;;
73885;SDS011;62217;44.504;11.312;2024-03-08T10:56:17;9.50;;;4.22;;
73885;SDS011;62217;44.504;11.312;2024-03-08T10:58:43;9.68;;;5.25;;
73885;SDS011;62217;44.504;11.312;2024-03-08T11:01:09;8.25;;;4.20;;
73885;SDS011;62217;44.504;11.312;2024-03-08T11:06:05;8.85;;;4.30;;
73885;SDS011;62217;44.504;11.312;2024-03-08T11:08:35;9.82;;;4.55;;
73885;SDS011;62217;44.504;11.312;2024-03-08T11:11:01;8.20;;;3.80;;
73885;SDS011;62217;44.504;11.312;2024-03-08T11:16:50;8.20;;;3.65;;
73885;SDS011;62217;44.504;11.312;2024-03-08T11:18:54;7.65;;;3.90;;
73885;SDS011;62217;44.504;11.312;2024-03-08T11:21:29;9.88;;;4.07;;
73885;SDS011;62217;44.504;11.312;2024-03-08T11:24:07;8.80;;;3.65;;
73885;SDS011;62217;44.504;11.312;2024-03-08T11:26:38;9.35;;;3.42;;
73885;SDS011;62217;44.504;11.312;2024-03-08T11:32:08;13.52;;;3.30;;
73885;SDS011;62217;44.504;11.312;2024-03-08T11:34:35;8.65;;;2.90;;
73885;SDS011;62217;44.504;11.312;2024-03-08T11:37:00;7.85;;;3.85;;
73885;SDS011;62217;44.504;11.312;2024-03-08T11:39:28;6.28;;;2.80;;
73885;SDS011;62217;44.504;11.312;2024-03-08T11:41:55;6.22;;;2.65;;
73885;SDS011;62217;44.504;11.312;2024-03-08T11:44:21;6.85;;;2.92;;
73885;SDS011;62217;44.504;11.312;2024-03-08T11:46:46;10.13;;;2.92;;
73885;SDS011;62217;44.504;11.312;2024-03-08T11:49:13;7.05;;;2.35;;
73885;SDS011;62217;44.504;11.312;2024-03-08T11:51:39;7.85;;;2.38;;
73885;SDS011;62217;44.504;11.312;2024-03-08T11:54:06;6.35;;;2.20;;
73885;SDS011;62217;44.504;11.312;2024-03-08T11:56:36;7.40;;;2.58;;
73885;SDS011;62217;44.504;11.312;2024-03-08T11:59:02;7.53;;;2.55;;
73885;SDS011;62217;44.504;11.312;2024-03-08T12:01:28;6.80;;;2.38;;
73885;SDS011;62217;44.504;11.312;2024-03-08T12:03:54;11.05;;;2.40;;
73885;SDS011;62217;44.504;11.312;2024-03-08T12:06:23;6.45;;;2.22;;
73885;SDS011;62217;44.504;11.312;2024-03-08T12:08:49;7.72;;;1.90;;
73885;SDS011;62217;44.504;11.312;2024-03-08T12:11:17;7.35;;;2.20;;
73885;SDS011;62217;44.504;11.312;2024-03-08T12:13:47;6.95;;;2.38;;
73885;SDS011;62217;44.504;11.312;2024-03-08T12:16:15;7.57;;;2.75;;
73885;SDS011;62217;44.504;11.312;2024-03-08T12:18:43;5.13;;;2.03;;
73885;SDS011;62217;44.504;11.312;2024-03-08T12:21:10;6.45;;;1.95;;
73885;SDS011;62217;44.504;11.312;2024-03-08T12:23:37;7.22;;;2.30;;
73885;SDS011;62217;44.504;11.312;2024-03-08T12:26:16;5.85;;;1.73;;
73885;SDS011;62217;44.504;11.312;2024-03-08T12:28:43;6.38;;;2.53;;
73885;SDS011;62217;44.504;11.312;2024-03-08T12:31:11;6.55;;;2.05;;
73885;SDS011;62217;44.504;11.312;2024-03-08T12:33:46;8.52;;;2.05;;
73885;SDS011;62217;44.504;11.312;2024-03-08T12:36:15;5.85;;;1.88;;
73885;SDS011;62217;44.504;11.312;2024-03-08T12:38:48;5.05;;;1.85;;
73885;SDS011;62217;44.504;11.312;2024-03-08T12:41:14;5.45;;;1.80;;
73885;SDS011;62217;44.504;11.312;2024-03-08T12:43:44;5.90;;;2.03;;
73885;SDS011;62217;44.504;11.312;2024-03-08T12:46:16;6.07;;;2.03;;
73885;SDS011;62217;44.504;11.312;2024-03-08T12:48:43;5.90;;;1.80;;
73885;SDS011;62217;44.504;11.312;2024-03-08T12:51:12;5.53;;;1.98;;
73885;SDS011;62217;44.504;11.312;2024-03-08T12:53:38;5.80;;;2.05;;
73885;SDS011;62217;44.504;11.312;2024-03-08T12:56:05;6.97;;;1.85;;
73885;SDS011;62217;44.504;11.312;2024-03-08T12:58:33;7.63;;;2.10;;
73885;SDS011;62217;44.504;11.312;2024-03-08T13:03:26;5.50;;;2.20;;
73885;SDS011;62217;44.504;11.312;2024-03-08T13:05:53;5.63;;;2.13;;
73885;SDS011;62217;44.504;11.312;2024-03-08T13:08:18;4.75;;;1.70;;
73885;SDS011;62217;44.504;11.312;2024-03-08T13:10:44;6.88;;;2.70;;
73885;SDS011;62217;44.504;11.312;2024-03-08T13:13:09;7.35;;;3.20;;
73885;SDS011;62217;44.504;11.312;2024-03-08T13:15:36;7.07;;;2.75;;
73885;SDS011;62217;44.504;11.312;2024-03-08T13:18:02;6.72;;;3.17;;
73885;SDS011;62217;44.504;11.312;2024-03-08T13:20:28;8.77;;;3.83;;
73885;SDS011;62217;44.504;11.312;2024-03-08T13:22:54;5.43;;;2.42;;
73885;SDS011;62217;44.504;11.312;2024-03-08T13:25:20;6.57;;;2.55;;
73885;SDS011;62217;44.504;11.312;2024-03-08T13:27:46;9.02;;;3.15;;
73885;SDS011;62217;44.504;11.312;2024-03-08T13:30:12;7.03;;;2.50;;
73885;SDS011;62217;44.504;11.312;2024-03-08T13:32:39;7.40;;;2.75;;
73885;SDS011;62217;44.504;11.312;2024-03-08T13:35:05;7.47;;;2.22;;
73885;SDS011;62217;44.504;11.312;2024-03-08T13:37:38;7.10;;;2.88;;
73885;SDS011;62217;44.504;11.312;2024-03-08T13:40:05;4.88;;;2.20;;
73885;SDS011;62217;44.504;11.312;2024-03-08T13:42:31;5.22;;;2.33;;
73885;SDS011;62217;44.504;11.312;2024-03-08T13:44:56;5.95;;;2.20;;
73885;SDS011;62217;44.504;11.312;2024-03-08T13:47:21;5.60;;;1.88;;
73885;SDS011;62217;44.504;11.312;2024-03-08T13:49:47;6.35;;;3.20;;
73885;SDS011;62217;44.504;11.312;2024-03-08T13:52:15;7.47;;;2.35;;
73885;SDS011;62217;44.504;11.312;2024-03-08T13:54:41;7.63;;;2.67;;
73885;SDS011;62217;44.504;11.312;2024-03-08T13:57:07;4.72;;;2.60;;
73885;SDS011;62217;44.504;11.312;2024-03-08T13:59:35;5.07;;;2.10;;
73885;SDS011;62217;44.504;11.312;2024-03-08T14:02:03;6.25;;;2.88;;
73885;SDS011;62217;44.504;11.312;2024-03-08T14:04:29;4.90;;;2.20;;
73885;SDS011;62217;44.504;11.312;2024-03-08T14:06:55;6.18;;;2.50;;
73885;SDS011;62217;44.504;11.312;2024-03-08T14:09:28;8.45;;;2.53;;
73885;SDS011;62217;44.504;11.312;2024-03-08T14:11:54;6.63;;;2.03;;
73885;SDS011;62217;44.504;11.312;2024-03-08T14:14:21;5.38;;;2.30;;
73885;SDS011;62217;44.504;11.312;2024-03-08T14:16:50;6.30;;;2.20;;
73885;SDS011;62217;44.504;11.312;2024-03-08T14:19:20;7.38;;;2.40;;
73885;SDS011;62217;44.504;11.312;2024-03-08T14:21:46;21.17;;;3.45;;
73885;SDS011;62217;44.504;11.312;2024-03-08T14:24:13;9.38;;;2.10;;
73885;SDS011;62217;44.504;11.312;2024-03-08T14:26:40;8.05;;;2.35;;
73885;SDS011;62217;44.504;11.312;2024-03-08T14:29:07;5.93;;;2.45;;
73885;SDS011;62217;44.504;11.312;2024-03-08T14:31:32;7.03;;;2.25;;
73885;SDS011;62217;44.504;11.312;2024-03-08T14:33:58;5.85;;;2.10;;
73885;SDS011;62217;44.504;11.312;2024-03-08T14:36:24;4.65;;;2.10;;
73885;SDS011;62217;44.504;11.312;2024-03-08T14:38:50;5.80;;;2.20;;
73885;SDS011;62217;44.504;11.312;2024-03-08T14:41:17;6.70;;;2.78;;
73885;SDS011;62217;44.504;11.312;2024-03-08T14:43:43;8.85;;;2.15;;
73885;SDS011;62217;44.504;11.312;2024-03-08T14:46:12;5.75;;;2.53;;